sensor_id;sensor_type;location;lat;lon;timestamp;temperature;humidity
7530;DHT22;3806;52.270;10.544;2022-09-09T00:03:27;16.40;99.90
7530;DHT22;3806;52.270;10.544;2022-09-09T00:06:11;16.40;99.90
7530;DHT22;3806;52.270;10.544;2022-09-09T00:11:26;16.40;99.90
7530;DHT22;3806;52.270;10.544;2022-09-09T00:13:55;16.40;99.90
7530;DHT22;3806;52.270;10.544;2022-09-09T00:16:22;16.40;99.90
7530;DHT22;3806;52.270;10.544;2022-09-09T00:21:57;16.40;99.90
7530;DHT22;3806;52.270;10.544;2022-09-09T00:24:32;16.40;99.90
7530;DHT22;3806;52.270;10.544;2022-09-09T00:27:11;16.40;99.90
7530;DHT22;3806;52.270;10.544;2022-09-09T00:29:43;16.50;99.90
7530;DHT22;3806;52.270;10.544;2022-09-09T00:32:18;16.50;99.90
7530;DHT22;3806;52.270;10.544;2022-09-09T00:34:56;16.50;99.90
7530;DHT22;3806;52.270;10.544;2022-09-09T00:37:25;16.50;99.90
7530;DHT22;3806;52.270;10.544;2022-09-09T00:39:55;16.50;99.90
7530;DHT22;3806;52.270;10.544;2022-09-09T00:42:32;16.50;99.90
7530;DHT22;3806;52.270;10.544;2022-09-09T00:47:53;16.50;99.90
7530;DHT22;3806;52.270;10.544;2022-09-09T00:50:40;16.50;99.90
7530;DHT22;3806;52.270;10.544;2022-09-09T00:56:13;16.60;99.90
7530;DHT22;3806;52.270;10.544;2022-09-09T00:58:46;16.60;99.90
7530;DHT22;3806;52.270;10.544;2022-09-09T01:01:16;16.60;99.90
7530;DHT22;3806;52.270;10.544;2022-09-09T01:04:02;16.50;99.90
7530;DHT22;3806;52.270;10.544;2022-09-09T01:06:35;16.50;99.90
7530;DHT22;3806;52.270;10.544;2022-09-09T01:09:26;16.60;99.90
7530;DHT22;3806;52.270;10.544;2022-09-09T01:12:12;16.60;99.90
7530;DHT22;3806;52.270;10.544;2022-09-09T01:14:49;16.50;99.90
7530;DHT22;3806;52.270;10.544;2022-09-09T01:17:24;16.60;99.90
7530;DHT22;3806;52.270;10.544;2022-09-09T01:20:15;16.60;99.90
7530;DHT22;3806;52.270;10.544;2022-09-09T01:28:28;16.60;99.90
7530;DHT22;3806;52.270;10.544;2022-09-09T01:30:54;16.50;99.90
7530;DHT22;3806;52.270;10.544;2022-09-09T01:33:21;16.50;99.90
7530;DHT22;3806;52.270;10.544;2022-09-09T01:36:01;16.50;99.90
7530;DHT22;3806;52.270;10.544;2022-09-09T01:38:29;16.50;99.90
7530;DHT22;3806;52.270;10.544;2022-09-09T01:40:56;16.40;99.90
7530;DHT22;3806;52.270;10.544;2022-09-09T01:43:24;16.40;99.90
7530;DHT22;3806;52.270;10.544;2022-09-09T01:45:53;16.40;99.90
7530;DHT22;3806;52.270;10.544;2022-09-09T01:48:21;16.40;99.90
7530;DHT22;3806;52.270;10.544;2022-09-09T01:50:48;16.30;99.90
7530;DHT22;3806;52.270;10.544;2022-09-09T01:53:15;16.30;99.90
7530;DHT22;3806;52.270;10.544;2022-09-09T01:58:29;16.30;99.90
7530;DHT22;3806;52.270;10.544;2022-09-09T02:01:05;16.20;99.90
7530;DHT22;3806;52.270;10.544;2022-09-09T02:03:32;16.20;99.90
7530;DHT22;3806;52.270;10.544;2022-09-09T02:08:53;16.20;99.90
7530;DHT22;3806;52.270;10.544;2022-09-09T02:11:23;16.10;99.90
7530;DHT22;3806;52.270;10.544;2022-09-09T02:16:55;16.10;99.90
7530;DHT22;3806;52.270;10.544;2022-09-09T02:19:36;16.10;99.90
7530;DHT22;3806;52.270;10.544;2022-09-09T02:22:03;16.00;99.90
7530;DHT22;3806;52.270;10.544;2022-09-09T02:24:32;16.00;99.90
7530;DHT22;3806;52.270;10.544;2022-09-09T02:26:59;16.00;99.90
7530;DHT22;3806;52.270;10.544;2022-09-09T02:29:37;15.90;99.90
7530;DHT22;3806;52.270;10.544;2022-09-09T02:32:06;15.90;99.90
7530;DHT22;3806;52.270;10.544;2022-09-09T02:34:37;15.90;99.90
7530;DHT22;3806;52.270;10.544;2022-09-09T02:37:06;15.90;99.90
7530;DHT22;3806;52.270;10.544;2022-09-09T02:39:33;15.90;99.90
7530;DHT22;3806;52.270;10.544;2022-09-09T02:41:59;15.80;99.90
7530;DHT22;3806;52.270;10.544;2022-09-09T02:44:25;15.70;99.90
7530;DHT22;3806;52.270;10.544;2022-09-09T02:47:21;15.70;99.90
7530;DHT22;3806;52.270;10.544;2022-09-09T02:55:25;15.70;99.90
7530;DHT22;3806;52.270;10.544;2022-09-09T02:57:53;15.70;99.90
7530;DHT22;3806;52.270;10.544;2022-09-09T03:00:25;15.70;99.90
7530;DHT22;3806;52.270;10.544;2022-09-09T03:02:51;15.70;99.90
7530;DHT22;3806;52.270;10.544;2022-09-09T03:05:18;15.70;99.90
7530;DHT22;3806;52.270;10.544;2022-09-09T03:07:44;15.70;99.90
7530;DHT22;3806;52.270;10.544;2022-09-09T03:10:09;15.70;99.90
7530;DHT22;3806;52.270;10.544;2022-09-09T03:12:36;15.70;99.90
7530;DHT22;3806;52.270;10.544;2022-09-09T03:15:01;15.60;99.90
7530;DHT22;3806;52.270;10.544;2022-09-09T03:17:27;15.60;99.90
7530;DHT22;3806;52.270;10.544;2022-09-09T03:19:53;15.60;99.90
7530;DHT22;3806;52.270;10.544;2022-09-09T03:22:20;15.60;99.90
7530;DHT22;3806;52.270;10.544;2022-09-09T03:24:46;15.60;99.90
7530;DHT22;3806;52.270;10.544;2022-09-09T03:27:12;15.60;99.90
7530;DHT22;3806;52.270;10.544;2022-09-09T03:29:39;15.60;99.90
7530;DHT22;3806;52.270;10.544;2022-09-09T03:32:05;15.60;99.90
7530;DHT22;3806;52.270;10.544;2022-09-09T03:34:31;15.60;99.90
7530;DHT22;3806;52.270;10.544;2022-09-09T03:36:56;15.60;99.90
7530;DHT22;3806;52.270;10.544;2022-09-09T03:39:22;15.60;99.90
7530;DHT22;3806;52.270;10.544;2022-09-09T03:41:47;15.60;99.90
7530;DHT22;3806;52.270;10.544;2022-09-09T03:44:14;15.60;99.90
7530;DHT22;3806;52.270;10.544;2022-09-09T03:46:40;15.60;99.90
7530;DHT22;3806;52.270;10.544;2022-09-09T03:49:05;15.60;99.90
7530;DHT22;3806;52.270;10.544;2022-09-09T03:51:31;15.60;99.90
7530;DHT22;3806;52.270;10.544;2022-09-09T03:53:57;15.60;99.90
7530;DHT22;3806;52.270;10.544;2022-09-09T03:56:24;15.60;99.90
7530;DHT22;3806;52.270;10.544;2022-09-09T03:58:49;15.70;99.90
7530;DHT22;3806;52.270;10.544;2022-09-09T04:01:15;15.70;99.90
7530;DHT22;3806;52.270;10.544;2022-09-09T04:03:43;15.70;99.90
7530;DHT22;3806;52.270;10.544;2022-09-09T04:06:11;15.70;99.90
7530;DHT22;3806;52.270;10.544;2022-09-09T04:08:38;15.70;99.90
7530;DHT22;3806;52.270;10.544;2022-09-09T04:11:05;15.70;99.90
7530;DHT22;3806;52.270;10.544;2022-09-09T04:13:32;15.70;99.90
7530;DHT22;3806;52.270;10.544;2022-09-09T04:16:00;15.70;99.90
7530;DHT22;3806;52.270;10.544;2022-09-09T04:18:27;15.80;99.90
7530;DHT22;3806;52.270;10.544;2022-09-09T04:20:56;15.80;99.90
7530;DHT22;3806;52.270;10.544;2022-09-09T04:23:23;15.80;99.90
7530;DHT22;3806;52.270;10.544;2022-09-09T04:25:53;15.90;99.90
7530;DHT22;3806;52.270;10.544;2022-09-09T04:28:21;15.90;99.90
7530;DHT22;3806;52.270;10.544;2022-09-09T04:30:47;15.90;99.90
7530;DHT22;3806;52.270;10.544;2022-09-09T04:33:14;15.90;99.90
7530;DHT22;3806;52.270;10.544;2022-09-09T04:35:47;15.90;99.90
7530;DHT22;3806;52.270;10.544;2022-09-09T04:38:14;15.90;99.90
7530;DHT22;3806;52.270;10.544;2022-09-09T04:40:48;16.00;99.90
7530;DHT22;3806;52.270;10.544;2022-09-09T04:43:14;16.00;99.90
7530;DHT22;3806;52.270;10.544;2022-09-09T04:45:43;16.00;99.90
7530;DHT22;3806;52.270;10.544;2022-09-09T04:48:09;16.00;99.90
7530;DHT22;3806;52.270;10.544;2022-09-09T04:50:35;16.00;99.90
7530;DHT22;3806;52.270;10.544;2022-09-09T04:53:02;16.10;99.90
7530;DHT22;3806;52.270;10.544;2022-09-09T04:55:28;16.00;99.90
7530;DHT22;3806;52.270;10.544;2022-09-09T04:57:54;16.00;99.90
7530;DHT22;3806;52.270;10.544;2022-09-09T05:00:19;16.00;99.90
7530;DHT22;3806;52.270;10.544;2022-09-09T05:02:45;16.10;99.90
7530;DHT22;3806;52.270;10.544;2022-09-09T05:05:11;16.10;99.90
7530;DHT22;3806;52.270;10.544;2022-09-09T05:07:37;16.10;99.90
7530;DHT22;3806;52.270;10.544;2022-09-09T05:10:03;16.20;99.90
7530;DHT22;3806;52.270;10.544;2022-09-09T05:12:30;16.30;99.90
7530;DHT22;3806;52.270;10.544;2022-09-09T05:14:56;16.40;99.90
7530;DHT22;3806;52.270;10.544;2022-09-09T05:17:22;16.40;99.90
7530;DHT22;3806;52.270;10.544;2022-09-09T05:19:48;16.50;99.90
7530;DHT22;3806;52.270;10.544;2022-09-09T05:22:21;16.60;99.90
7530;DHT22;3806;52.270;10.544;2022-09-09T05:24:49;16.60;99.90
7530;DHT22;3806;52.270;10.544;2022-09-09T05:27:17;16.70;99.90
7530;DHT22;3806;52.270;10.544;2022-09-09T05:29:43;16.80;99.90
7530;DHT22;3806;52.270;10.544;2022-09-09T05:32:10;16.80;99.90
7530;DHT22;3806;52.270;10.544;2022-09-09T05:34:35;16.90;99.90
7530;DHT22;3806;52.270;10.544;2022-09-09T05:37:03;17.00;99.90
7530;DHT22;3806;52.270;10.544;2022-09-09T05:39:29;17.00;99.90
7530;DHT22;3806;52.270;10.544;2022-09-09T05:41:55;17.10;99.90
7530;DHT22;3806;52.270;10.544;2022-09-09T05:44:20;17.20;99.90
7530;DHT22;3806;52.270;10.544;2022-09-09T05:46:48;17.20;99.90
7530;DHT22;3806;52.270;10.544;2022-09-09T05:49:14;17.30;99.90
7530;DHT22;3806;52.270;10.544;2022-09-09T05:51:41;17.40;99.90
7530;DHT22;3806;52.270;10.544;2022-09-09T05:54:08;17.40;99.90
7530;DHT22;3806;52.270;10.544;2022-09-09T05:56:34;17.50;99.90
7530;DHT22;3806;52.270;10.544;2022-09-09T05:58:59;17.50;99.90
7530;DHT22;3806;52.270;10.544;2022-09-09T06:01:28;17.50;99.90
7530;DHT22;3806;52.270;10.544;2022-09-09T06:03:54;17.50;99.90
7530;DHT22;3806;52.270;10.544;2022-09-09T06:06:22;17.50;99.90
7530;DHT22;3806;52.270;10.544;2022-09-09T06:08:54;17.50;99.90
7530;DHT22;3806;52.270;10.544;2022-09-09T06:11:22;17.40;99.90
7530;DHT22;3806;52.270;10.544;2022-09-09T06:13:49;17.40;99.90
7530;DHT22;3806;52.270;10.544;2022-09-09T06:16:18;17.40;99.90
7530;DHT22;3806;52.270;10.544;2022-09-09T06:18:44;17.40;99.90
7530;DHT22;3806;52.270;10.544;2022-09-09T06:21:18;17.50;99.90
7530;DHT22;3806;52.270;10.544;2022-09-09T06:23:45;17.50;99.90
7530;DHT22;3806;52.270;10.544;2022-09-09T06:28:42;17.80;99.90
7530;DHT22;3806;52.270;10.544;2022-09-09T06:31:10;18.10;99.90
7530;DHT22;3806;52.270;10.544;2022-09-09T06:33:37;18.40;99.90
7530;DHT22;3806;52.270;10.544;2022-09-09T06:36:07;18.90;99.90
7530;DHT22;3806;52.270;10.544;2022-09-09T06:38:35;19.40;99.90
7530;DHT22;3806;52.270;10.544;2022-09-09T06:41:01;19.70;99.90
7530;DHT22;3806;52.270;10.544;2022-09-09T06:43:27;20.70;99.90
7530;DHT22;3806;52.270;10.544;2022-09-09T06:46:22;22.00;99.90
7530;DHT22;3806;52.270;10.544;2022-09-09T06:48:49;23.10;98.70
7530;DHT22;3806;52.270;10.544;2022-09-09T06:51:19;23.40;96.40
7530;DHT22;3806;52.270;10.544;2022-09-09T06:53:47;23.40;95.60
7530;DHT22;3806;52.270;10.544;2022-09-09T06:58:42;24.60;93.00
7530;DHT22;3806;52.270;10.544;2022-09-09T07:01:09;25.10;90.90
7530;DHT22;3806;52.270;10.544;2022-09-09T07:03:35;25.50;89.30
7530;DHT22;3806;52.270;10.544;2022-09-09T07:06:01;26.40;86.80
7530;DHT22;3806;52.270;10.544;2022-09-09T07:08:27;28.30;80.60
7530;DHT22;3806;52.270;10.544;2022-09-09T07:10:53;30.70;69.30
7530;DHT22;3806;52.270;10.544;2022-09-09T07:13:26;32.90;56.60
7530;DHT22;3806;52.270;10.544;2022-09-09T07:15:53;34.80;50.00
7530;DHT22;3806;52.270;10.544;2022-09-09T07:18:19;35.90;44.90
7530;DHT22;3806;52.270;10.544;2022-09-09T07:20:54;35.90;40.50
7530;DHT22;3806;52.270;10.544;2022-09-09T07:23:23;36.30;39.10
7530;DHT22;3806;52.270;10.544;2022-09-09T07:25:49;37.20;38.10
7530;DHT22;3806;52.270;10.544;2022-09-09T07:28:16;38.10;36.70
7530;DHT22;3806;52.270;10.544;2022-09-09T07:30:42;39.00;34.80
7530;DHT22;3806;52.270;10.544;2022-09-09T07:33:08;39.60;32.30
7530;DHT22;3806;52.270;10.544;2022-09-09T07:35:35;39.90;31.10
7530;DHT22;3806;52.270;10.544;2022-09-09T07:38:02;40.10;30.60
7530;DHT22;3806;52.270;10.544;2022-09-09T07:40:32;40.00;30.60
7530;DHT22;3806;52.270;10.544;2022-09-09T07:42:59;39.80;30.30
7530;DHT22;3806;52.270;10.544;2022-09-09T07:45:25;39.20;30.40
7530;DHT22;3806;52.270;10.544;2022-09-09T07:47:53;37.80;30.80
7530;DHT22;3806;52.270;10.544;2022-09-09T07:50:19;36.20;32.90
7530;DHT22;3806;52.270;10.544;2022-09-09T07:52:45;35.20;34.50
7530;DHT22;3806;52.270;10.544;2022-09-09T07:55:10;34.50;35.70
7530;DHT22;3806;52.270;10.544;2022-09-09T07:57:36;34.10;36.50
7530;DHT22;3806;52.270;10.544;2022-09-09T08:00:03;33.70;36.80
7530;DHT22;3806;52.270;10.544;2022-09-09T08:02:29;33.50;37.50
7530;DHT22;3806;52.270;10.544;2022-09-09T08:04:57;34.00;37.30
7530;DHT22;3806;52.270;10.544;2022-09-09T08:07:23;35.00;35.60
7530;DHT22;3806;52.270;10.544;2022-09-09T08:09:49;36.10;34.60
7530;DHT22;3806;52.270;10.544;2022-09-09T08:12:15;37.50;32.40
7530;DHT22;3806;52.270;10.544;2022-09-09T08:14:41;38.90;30.50
7530;DHT22;3806;52.270;10.544;2022-09-09T08:17:07;40.40;29.60
7530;DHT22;3806;52.270;10.544;2022-09-09T08:19:33;42.00;27.80
7530;DHT22;3806;52.270;10.544;2022-09-09T08:22:01;43.30;26.90
7530;DHT22;3806;52.270;10.544;2022-09-09T08:24:28;44.40;25.70
7530;DHT22;3806;52.270;10.544;2022-09-09T08:26:54;45.00;24.80
7530;DHT22;3806;52.270;10.544;2022-09-09T08:29:22;44.60;24.70
7530;DHT22;3806;52.270;10.544;2022-09-09T08:31:50;42.50;25.20
7530;DHT22;3806;52.270;10.544;2022-09-09T08:34:17;39.90;26.70
7530;DHT22;3806;52.270;10.544;2022-09-09T08:36:46;37.40;28.60
7530;DHT22;3806;52.270;10.544;2022-09-09T08:39:15;35.20;30.40
7530;DHT22;3806;52.270;10.544;2022-09-09T08:45:14;31.60;35.80
7530;DHT22;3806;52.270;10.544;2022-09-09T08:50:30;30.40;39.40
7530;DHT22;3806;52.270;10.544;2022-09-09T09:09:17;30.30;39.50
7530;DHT22;3806;52.270;10.544;2022-09-09T09:12:00;29.60;40.50
7530;DHT22;3806;52.270;10.544;2022-09-09T09:14:31;28.80;41.80
7530;DHT22;3806;52.270;10.544;2022-09-09T09:17:06;28.30;42.60
7530;DHT22;3806;52.270;10.544;2022-09-09T09:19:34;28.10;43.60
7530;DHT22;3806;52.270;10.544;2022-09-09T09:27:30;32.30;39.30
7530;DHT22;3806;52.270;10.544;2022-09-09T09:29:59;34.20;36.90
7530;DHT22;3806;52.270;10.544;2022-09-09T09:32:26;36.00;34.60
7530;DHT22;3806;52.270;10.544;2022-09-09T09:34:56;37.90;32.00
7530;DHT22;3806;52.270;10.544;2022-09-09T09:37:30;38.40;30.50
7530;DHT22;3806;52.270;10.544;2022-09-09T09:40:07;38.60;30.30
7530;DHT22;3806;52.270;10.544;2022-09-09T09:42:33;39.50;29.20
7530;DHT22;3806;52.270;10.544;2022-09-09T09:45:17;40.40;28.20
7530;DHT22;3806;52.270;10.544;2022-09-09T09:47:46;40.60;27.50
7530;DHT22;3806;52.270;10.544;2022-09-09T09:50:19;39.80;27.50
7530;DHT22;3806;52.270;10.544;2022-09-09T09:53:00;38.30;28.20
7530;DHT22;3806;52.270;10.544;2022-09-09T09:55:29;36.50;29.50
7530;DHT22;3806;52.270;10.544;2022-09-09T09:58:06;35.10;31.30
7530;DHT22;3806;52.270;10.544;2022-09-09T10:00:32;34.30;32.30
7530;DHT22;3806;52.270;10.544;2022-09-09T10:03:00;33.20;33.50
7530;DHT22;3806;52.270;10.544;2022-09-09T10:05:30;31.90;34.90
7530;DHT22;3806;52.270;10.544;2022-09-09T10:08:14;30.90;36.70
7530;DHT22;3806;52.270;10.544;2022-09-09T10:10:53;30.00;38.40
7530;DHT22;3806;52.270;10.544;2022-09-09T10:13:37;29.30;40.00
7530;DHT22;3806;52.270;10.544;2022-09-09T10:16:29;28.90;41.30
7530;DHT22;3806;52.270;10.544;2022-09-09T10:19:04;28.40;42.40
7530;DHT22;3806;52.270;10.544;2022-09-09T10:27:09;27.00;45.20
7530;DHT22;3806;52.270;10.544;2022-09-09T10:32:54;26.40;46.80
7530;DHT22;3806;52.270;10.544;2022-09-09T10:35:53;26.20;47.70
7530;DHT22;3806;52.270;10.544;2022-09-09T10:38:33;26.10;48.30
7530;DHT22;3806;52.270;10.544;2022-09-09T10:41:16;26.30;48.70
7530;DHT22;3806;52.270;10.544;2022-09-09T10:46:50;27.30;47.40
7530;DHT22;3806;52.270;10.544;2022-09-09T10:55:17;26.70;47.80
7530;DHT22;3806;52.270;10.544;2022-09-09T10:57:46;26.80;48.50
7530;DHT22;3806;52.270;10.544;2022-09-09T11:00:22;27.10;48.10
7530;DHT22;3806;52.270;10.544;2022-09-09T11:02:53;27.20;48.10
7530;DHT22;3806;52.270;10.544;2022-09-09T11:08:20;26.80;48.70
7530;DHT22;3806;52.270;10.544;2022-09-09T11:10:57;26.50;48.20
7530;DHT22;3806;52.270;10.544;2022-09-09T11:19:03;25.40;49.50
7530;DHT22;3806;52.270;10.544;2022-09-09T11:21:40;25.20;49.90
7530;DHT22;3806;52.270;10.544;2022-09-09T11:24:17;25.10;50.10
7530;DHT22;3806;52.270;10.544;2022-09-09T11:27:08;25.00;50.60
7530;DHT22;3806;52.270;10.544;2022-09-09T11:38:25;25.20;52.60
7530;DHT22;3806;52.270;10.544;2022-09-09T11:41:03;25.10;53.20
7530;DHT22;3806;52.270;10.544;2022-09-09T11:43:43;25.00;54.00
7530;DHT22;3806;52.270;10.544;2022-09-09T11:46:09;24.80;55.00
7530;DHT22;3806;52.270;10.544;2022-09-09T11:48:36;24.70;56.30
7530;DHT22;3806;52.270;10.544;2022-09-09T11:51:26;24.40;56.90
7530;DHT22;3806;52.270;10.544;2022-09-09T11:56:43;24.30;58.30
7530;DHT22;3806;52.270;10.544;2022-09-09T11:59:27;24.30;58.10
7530;DHT22;3806;52.270;10.544;2022-09-09T12:01:58;24.30;58.60
7530;DHT22;3806;52.270;10.544;2022-09-09T12:17:25;24.70;57.20
7530;DHT22;3806;52.270;10.544;2022-09-09T12:20:16;24.90;57.20
7530;DHT22;3806;52.270;10.544;2022-09-09T12:25:58;25.10;56.40
7530;DHT22;3806;52.270;10.544;2022-09-09T12:29:09;25.00;56.70
7530;DHT22;3806;52.270;10.544;2022-09-09T12:31:22;25.00;56.30
7530;DHT22;3806;52.270;10.544;2022-09-09T12:33:51;25.10;55.80
7530;DHT22;3806;52.270;10.544;2022-09-09T12:36:29;25.00;56.00
7530;DHT22;3806;52.270;10.544;2022-09-09T12:38:59;25.00;56.20
7530;DHT22;3806;52.270;10.544;2022-09-09T12:41:35;25.00;56.00
7530;DHT22;3806;52.270;10.544;2022-09-09T12:44:08;25.10;55.00
7530;DHT22;3806;52.270;10.544;2022-09-09T12:46:45;25.10;54.50
7530;DHT22;3806;52.270;10.544;2022-09-09T12:49:34;25.10;54.10
7530;DHT22;3806;52.270;10.544;2022-09-09T12:52:13;25.20;54.60
7530;DHT22;3806;52.270;10.544;2022-09-09T12:54:44;25.10;54.60
7530;DHT22;3806;52.270;10.544;2022-09-09T12:57:13;25.10;54.50
7530;DHT22;3806;52.270;10.544;2022-09-09T12:59:42;25.10;53.40
7530;DHT22;3806;52.270;10.544;2022-09-09T13:02:23;25.20;53.20
7530;DHT22;3806;52.270;10.544;2022-09-09T13:04:50;25.30;54.20
7530;DHT22;3806;52.270;10.544;2022-09-09T13:07:17;25.40;55.40
7530;DHT22;3806;52.270;10.544;2022-09-09T13:09:43;25.50;56.40
7530;DHT22;3806;52.270;10.544;2022-09-09T13:12:19;25.60;57.30
7530;DHT22;3806;52.270;10.544;2022-09-09T13:14:48;25.70;57.20
7530;DHT22;3806;52.270;10.544;2022-09-09T13:17:23;25.60;56.40
7530;DHT22;3806;52.270;10.544;2022-09-09T13:19:50;25.50;56.50
7530;DHT22;3806;52.270;10.544;2022-09-09T13:25:20;25.20;57.30
7530;DHT22;3806;52.270;10.544;2022-09-09T13:28:03;25.00;57.80
7530;DHT22;3806;52.270;10.544;2022-09-09T13:30:34;24.90;58.30
7530;DHT22;3806;52.270;10.544;2022-09-09T13:36:06;24.60;59.00
7530;DHT22;3806;52.270;10.544;2022-09-09T13:38:37;24.60;59.60
7530;DHT22;3806;52.270;10.544;2022-09-09T13:41:10;24.60;60.90
7530;DHT22;3806;52.270;10.544;2022-09-09T13:43:47;24.60;62.50
7530;DHT22;3806;52.270;10.544;2022-09-09T13:46:38;24.70;64.40
7530;DHT22;3806;52.270;10.544;2022-09-09T13:51:47;24.60;66.50
7530;DHT22;3806;52.270;10.544;2022-09-09T13:54:15;24.60;67.70
7530;DHT22;3806;52.270;10.544;2022-09-09T13:56:42;24.50;69.30
7530;DHT22;3806;52.270;10.544;2022-09-09T13:59:17;24.40;69.90
7530;DHT22;3806;52.270;10.544;2022-09-09T14:01:45;24.40;69.40
7530;DHT22;3806;52.270;10.544;2022-09-09T14:04:11;24.30;69.40
7530;DHT22;3806;52.270;10.544;2022-09-09T14:06:37;24.40;69.50
7530;DHT22;3806;52.270;10.544;2022-09-09T14:09:11;24.40;68.40
7530;DHT22;3806;52.270;10.544;2022-09-09T14:11:37;24.40;67.10
7530;DHT22;3806;52.270;10.544;2022-09-09T14:14:03;24.40;66.30
7530;DHT22;3806;52.270;10.544;2022-09-09T14:16:29;24.40;64.80
7530;DHT22;3806;52.270;10.544;2022-09-09T14:18:55;24.30;63.10
7530;DHT22;3806;52.270;10.544;2022-09-09T14:21:25;24.20;61.80
7530;DHT22;3806;52.270;10.544;2022-09-09T14:23:51;24.20;62.00
7530;DHT22;3806;52.270;10.544;2022-09-09T14:26:18;24.00;61.90
7530;DHT22;3806;52.270;10.544;2022-09-09T14:28:46;23.90;61.70
7530;DHT22;3806;52.270;10.544;2022-09-09T14:31:12;23.80;61.80
7530;DHT22;3806;52.270;10.544;2022-09-09T14:33:39;23.80;62.00
7530;DHT22;3806;52.270;10.544;2022-09-09T14:36:05;23.70;62.50
7530;DHT22;3806;52.270;10.544;2022-09-09T14:38:36;23.60;63.20
7530;DHT22;3806;52.270;10.544;2022-09-09T14:41:10;23.60;64.10
7530;DHT22;3806;52.270;10.544;2022-09-09T14:43:38;23.50;64.90
7530;DHT22;3806;52.270;10.544;2022-09-09T14:46:08;23.30;66.10
7530;DHT22;3806;52.270;10.544;2022-09-09T14:48:35;23.20;66.80
7530;DHT22;3806;52.270;10.544;2022-09-09T14:51:08;23.00;67.50
7530;DHT22;3806;52.270;10.544;2022-09-09T14:53:34;22.90;69.00
7530;DHT22;3806;52.270;10.544;2022-09-09T14:56:25;22.90;70.30
7530;DHT22;3806;52.270;10.544;2022-09-09T14:58:55;22.80;71.80
7530;DHT22;3806;52.270;10.544;2022-09-09T15:01:21;22.70;73.00
7530;DHT22;3806;52.270;10.544;2022-09-09T15:03:52;22.60;72.80
7530;DHT22;3806;52.270;10.544;2022-09-09T15:06:19;22.50;73.60
7530;DHT22;3806;52.270;10.544;2022-09-09T15:08:46;22.50;74.30
7530;DHT22;3806;52.270;10.544;2022-09-09T15:11:14;22.50;73.60
7530;DHT22;3806;52.270;10.544;2022-09-09T15:13:41;22.40;74.50
7530;DHT22;3806;52.270;10.544;2022-09-09T15:16:10;22.30;74.80
7530;DHT22;3806;52.270;10.544;2022-09-09T15:18:37;22.20;75.30
7530;DHT22;3806;52.270;10.544;2022-09-09T15:21:05;22.20;75.40
7530;DHT22;3806;52.270;10.544;2022-09-09T15:23:32;22.20;75.80
7530;DHT22;3806;52.270;10.544;2022-09-09T15:25:58;22.20;76.20
7530;DHT22;3806;52.270;10.544;2022-09-09T15:28:24;22.20;76.30
7530;DHT22;3806;52.270;10.544;2022-09-09T15:30:50;22.20;76.40
7530;DHT22;3806;52.270;10.544;2022-09-09T15:33:18;22.20;76.00
7530;DHT22;3806;52.270;10.544;2022-09-09T15:35:43;22.20;75.90
7530;DHT22;3806;52.270;10.544;2022-09-09T15:38:09;22.20;75.60
7530;DHT22;3806;52.270;10.544;2022-09-09T15:40:35;22.20;75.40
7530;DHT22;3806;52.270;10.544;2022-09-09T15:43:01;22.30;75.60
7530;DHT22;3806;52.270;10.544;2022-09-09T15:45:28;22.30;75.50
7530;DHT22;3806;52.270;10.544;2022-09-09T15:47:56;22.30;75.70
7530;DHT22;3806;52.270;10.544;2022-09-09T15:50:21;22.30;76.80
7530;DHT22;3806;52.270;10.544;2022-09-09T15:52:48;22.30;76.80
7530;DHT22;3806;52.270;10.544;2022-09-09T15:55:13;22.30;76.70
7530;DHT22;3806;52.270;10.544;2022-09-09T15:57:39;22.30;76.30
7530;DHT22;3806;52.270;10.544;2022-09-09T16:00:06;22.30;76.30
7530;DHT22;3806;52.270;10.544;2022-09-09T16:02:32;22.20;76.80
7530;DHT22;3806;52.270;10.544;2022-09-09T16:04:58;22.20;77.40
7530;DHT22;3806;52.270;10.544;2022-09-09T16:07:23;22.20;78.60
7530;DHT22;3806;52.270;10.544;2022-09-09T16:09:49;22.20;78.90
7530;DHT22;3806;52.270;10.544;2022-09-09T16:12:18;22.30;78.90
7530;DHT22;3806;52.270;10.544;2022-09-09T16:14:44;22.30;78.90
7530;DHT22;3806;52.270;10.544;2022-09-09T16:17:10;22.30;78.10
7530;DHT22;3806;52.270;10.544;2022-09-09T16:19:36;22.30;78.10
7530;DHT22;3806;52.270;10.544;2022-09-09T16:22:03;22.30;78.90
7530;DHT22;3806;52.270;10.544;2022-09-09T16:24:29;22.30;79.30
7530;DHT22;3806;52.270;10.544;2022-09-09T16:26:55;22.30;79.60
7530;DHT22;3806;52.270;10.544;2022-09-09T16:29:21;22.20;80.00
7530;DHT22;3806;52.270;10.544;2022-09-09T16:31:48;22.20;80.30
7530;DHT22;3806;52.270;10.544;2022-09-09T16:34:15;22.20;80.60
7530;DHT22;3806;52.270;10.544;2022-09-09T16:36:43;22.10;81.10
7530;DHT22;3806;52.270;10.544;2022-09-09T16:39:14;22.00;81.60
7530;DHT22;3806;52.270;10.544;2022-09-09T16:41:41;22.00;82.00
7530;DHT22;3806;52.270;10.544;2022-09-09T16:44:10;22.00;82.40
7530;DHT22;3806;52.270;10.544;2022-09-09T16:46:38;21.90;82.10
7530;DHT22;3806;52.270;10.544;2022-09-09T16:49:06;21.90;82.70
7530;DHT22;3806;52.270;10.544;2022-09-09T16:51:40;21.90;83.80
7530;DHT22;3806;52.270;10.544;2022-09-09T16:54:08;21.80;83.60
7530;DHT22;3806;52.270;10.544;2022-09-09T16:56:36;21.70;84.20
7530;DHT22;3806;52.270;10.544;2022-09-09T16:59:05;21.70;85.30
7530;DHT22;3806;52.270;10.544;2022-09-09T17:01:33;21.60;85.00
7530;DHT22;3806;52.270;10.544;2022-09-09T17:04:02;21.50;85.50
7530;DHT22;3806;52.270;10.544;2022-09-09T17:06:29;21.50;86.30
7530;DHT22;3806;52.270;10.544;2022-09-09T17:08:56;21.40;87.20
7530;DHT22;3806;52.270;10.544;2022-09-09T17:11:22;21.30;87.70
7530;DHT22;3806;52.270;10.544;2022-09-09T17:13:49;21.20;89.20
7530;DHT22;3806;52.270;10.544;2022-09-09T17:16:16;21.10;89.30
7530;DHT22;3806;52.270;10.544;2022-09-09T17:18:43;21.10;89.50
7530;DHT22;3806;52.270;10.544;2022-09-09T17:21:14;21.00;90.20
7530;DHT22;3806;52.270;10.544;2022-09-09T17:23:41;20.90;90.80
7530;DHT22;3806;52.270;10.544;2022-09-09T17:26:09;20.80;91.00
7530;DHT22;3806;52.270;10.544;2022-09-09T17:28:36;20.80;90.90
7530;DHT22;3806;52.270;10.544;2022-09-09T17:31:07;20.70;90.70
7530;DHT22;3806;52.270;10.544;2022-09-09T17:33:37;20.70;90.70
7530;DHT22;3806;52.270;10.544;2022-09-09T17:36:18;20.60;90.80
7530;DHT22;3806;52.270;10.544;2022-09-09T17:38:44;20.50;91.30
7530;DHT22;3806;52.270;10.544;2022-09-09T17:41:16;20.40;91.80
7530;DHT22;3806;52.270;10.544;2022-09-09T17:43:43;20.40;92.40
7530;DHT22;3806;52.270;10.544;2022-09-09T17:46:11;20.30;92.90
7530;DHT22;3806;52.270;10.544;2022-09-09T17:48:38;20.20;93.10
7530;DHT22;3806;52.270;10.544;2022-09-09T17:51:06;20.10;93.50
7530;DHT22;3806;52.270;10.544;2022-09-09T17:53:44;20.10;93.60
7530;DHT22;3806;52.270;10.544;2022-09-09T17:56:12;20.00;93.70
7530;DHT22;3806;52.270;10.544;2022-09-09T17:58:38;20.00;94.00
7530;DHT22;3806;52.270;10.544;2022-09-09T18:01:13;19.90;94.30
7530;DHT22;3806;52.270;10.544;2022-09-09T18:03:41;19.90;94.60
7530;DHT22;3806;52.270;10.544;2022-09-09T18:06:10;19.80;94.80
7530;DHT22;3806;52.270;10.544;2022-09-09T18:08:38;19.80;95.10
7530;DHT22;3806;52.270;10.544;2022-09-09T18:11:05;19.70;95.40